createdAt,value
2022-11-07T00:01:18.878Z,100636.25
2022-11-07T00:03:45.572Z,100641.66
2022-11-07T00:06:13.538Z,100634.38
2022-11-07T00:08:39.999Z,100643.34
2022-11-07T00:11:06.779Z,100647.91
2022-11-07T00:13:33.796Z,100645.06
2022-11-07T00:16:01.908Z,100652.19
2022-11-07T00:18:28.504Z,100650.31
2022-11-07T00:20:54.980Z,100649.34
2022-11-07T00:23:21.585Z,100654.59
2022-11-07T00:25:48.647Z,100654.47
2022-11-07T00:28:15.250Z,100650.63
2022-11-07T00:30:41.729Z,100657.72
2022-11-07T00:33:08.189Z,100653.91
2022-11-07T00:35:40.834Z,100661.16
2022-11-07T00:38:07.280Z,100667.28
2022-11-07T00:40:33.775Z,100664.44
2022-11-07T00:43:00.236Z,100667.13
2022-11-07T00:45:30.850Z,100669.69
2022-11-07T00:47:57.344Z,100664.44
2022-11-07T00:50:23.895Z,100668.13
2022-11-07T00:52:50.376Z,100673.69
2022-11-07T00:55:16.956Z,100671.09
2022-11-07T00:57:43.448Z,100668.69
2022-11-07T01:00:10.689Z,100668.81
2022-11-07T01:02:37.267Z,100678.06
2022-11-07T01:05:13.092Z,100668.41
2022-11-07T01:07:40.863Z,100662.28
2022-11-07T01:10:08.790Z,100667.09
2022-11-07T01:12:36.243Z,100675.50
2022-11-07T01:15:04.755Z,100671.94
2022-11-07T01:17:31.228Z,100679.91
2022-11-07T01:19:57.710Z,100681.75
2022-11-07T01:22:24.243Z,100678.34
2022-11-07T01:24:52.458Z,100689.16
2022-11-07T01:27:18.953Z,100690.13
2022-11-07T01:29:45.412Z,100691.97
2022-11-07T01:32:11.898Z,100688.44
2022-11-07T01:34:41.698Z,100692.84
2022-11-07T01:37:08.209Z,100692.97
2022-11-07T01:39:34.674Z,100706.50
2022-11-07T01:42:01.217Z,100704.78
2022-11-07T01:44:29.270Z,100703.94
2022-11-07T01:46:59.171Z,100699.38
2022-11-07T01:49:37.675Z,100701.38
2022-11-07T01:52:09.827Z,100702.22
2022-11-07T01:54:43.929Z,100695.97
2022-11-07T01:57:20.832Z,100695.09
2022-11-07T01:59:48.172Z,100697.94
2022-11-07T02:02:15.385Z,100701.63
2022-11-07T02:04:46.226Z,100691.81
2022-11-07T02:07:21.087Z,100696.38
2022-11-07T02:09:48.612Z,100693.66
2022-11-07T02:12:15.992Z,100690.81
2022-11-07T02:14:43.837Z,100698.09
2022-11-07T02:17:14.669Z,100695.38
2022-11-07T02:19:49.887Z,100703.34
2022-11-07T02:22:36.506Z,100711.44
2022-11-07T02:25:08.352Z,100711.19
2022-11-07T02:27:35.004Z,100706.50
2022-11-07T02:30:23.665Z,100704.63
2022-11-07T02:32:50.514Z,100706.94
2022-11-07T02:35:38.747Z,100702.38
2022-11-07T02:38:21.219Z,100704.94
2022-11-07T02:41:00.882Z,100694.00
2022-11-07T02:43:30.097Z,100698.53
2022-11-07T02:46:00.407Z,100714.63
2022-11-07T02:48:32.031Z,100711.19
2022-11-07T02:50:59.258Z,100721.28
2022-11-07T02:53:26.743Z,100719.59
2022-11-07T02:55:53.281Z,100706.94
2022-11-07T02:58:19.750Z,100700.38
2022-11-07T03:00:46.295Z,100696.69
2022-11-07T03:03:13.850Z,100700.25
2022-11-07T03:05:41.625Z,100694.84
2022-11-07T03:08:08.314Z,100693.00
2022-11-07T03:10:34.925Z,100691.16
2022-11-07T03:13:02.058Z,100691.00
2022-11-07T03:15:31.581Z,100680.19
2022-11-07T03:17:59.456Z,100687.44
2022-11-07T03:20:25.960Z,100692.00
2022-11-07T03:22:52.704Z,100695.56
2022-11-07T03:25:22.290Z,100694.84
2022-11-07T03:27:50.134Z,100694.84
2022-11-07T03:30:17.266Z,100695.69
2022-11-07T03:32:44.006Z,100694.00
2022-11-07T03:35:10.740Z,100702.25
2022-11-07T03:37:37.284Z,100698.69
2022-11-07T03:40:04.258Z,100711.47
2022-11-07T03:42:30.824Z,100709.63
2022-11-07T03:44:58.277Z,100709.50
2022-11-07T03:47:24.827Z,100712.91
2022-11-07T03:49:51.273Z,100710.22
2022-11-07T03:52:17.740Z,100713.91
2022-11-07T03:54:48.161Z,100723.88
2022-11-07T03:57:14.713Z,100721.16
2022-11-07T03:59:41.253Z,100729.28
2022-11-07T04:02:08.048Z,100720.31
2022-11-07T04:04:36.261Z,100716.75
2022-11-07T04:07:02.913Z,100719.44
2022-11-07T04:09:29.422Z,100717.47
2022-11-07T04:12:14.483Z,100713.78
2022-11-07T04:14:59.570Z,100716.19
2022-11-07T04:17:28.021Z,100725.88
2022-11-07T04:19:56.074Z,100716.63
2022-11-07T04:22:24.858Z,100717.34
2022-11-07T04:24:52.680Z,100714.38
2022-11-07T04:27:38.645Z,100708.69
2022-11-07T04:30:19.754Z,100712.94
2022-11-07T04:32:53.777Z,100713.69
2022-11-07T04:35:23.777Z,100717.97
2022-11-07T04:37:50.595Z,100721.38
2022-11-07T04:40:18.358Z,100724.81
2022-11-07T04:42:45.880Z,100723.81
2022-11-07T04:45:13.884Z,100730.94
2022-11-07T04:47:40.972Z,100719.13
2022-11-07T04:50:10.036Z,100720.97
2022-11-07T04:52:36.680Z,100723.69
2022-11-07T04:55:08.444Z,100718.25
2022-11-07T04:57:35.012Z,100726.53
2022-11-07T05:00:02.508Z,100730.06
2022-11-07T05:02:29.125Z,100729.50
2022-11-07T05:04:55.685Z,100734.19
2022-11-07T05:07:22.184Z,100735.19
2022-11-07T05:09:48.775Z,100736.19
2022-11-07T05:12:15.240Z,100741.84
2022-11-07T05:14:42.804Z,100734.72
2022-11-07T05:17:15.025Z,100734.84
2022-11-07T05:19:43.454Z,100741.13
2022-11-07T05:22:29.720Z,100733.88
2022-11-07T05:25:00.522Z,100743.69
2022-11-07T05:27:26.982Z,100736.44
2022-11-07T05:29:53.463Z,100737.16
2022-11-07T05:32:19.995Z,100731.63
2022-11-07T05:34:50.724Z,100738.59
2022-11-07T05:37:17.198Z,100745.59
2022-11-07T05:39:43.644Z,100748.28
2022-11-07T05:42:10.102Z,100746.31
2022-11-07T05:44:39.427Z,100747.16
2022-11-07T05:47:05.904Z,100745.31
2022-11-07T05:49:32.352Z,100751.44
2022-11-07T05:51:58.855Z,100751.44
2022-11-07T05:54:30.321Z,100756.69
2022-11-07T05:56:57.624Z,100760.13
2022-11-07T05:59:24.207Z,100751.00
2022-11-07T06:01:52.380Z,100756.16
2022-11-07T06:04:23.118Z,100751.44
2022-11-07T06:06:49.687Z,100748.59
2022-11-07T06:09:16.177Z,100749.47
2022-11-07T06:11:42.707Z,100751.31
2022-11-07T06:14:16.664Z,100747.59
2022-11-07T06:16:43.205Z,100748.47
2022-11-07T06:19:09.785Z,100747.31
2022-11-07T06:21:36.316Z,100740.06
2022-11-07T06:24:03.556Z,100732.81
2022-11-07T06:26:30.123Z,100742.78
2022-11-07T06:28:56.583Z,100743.75
2022-11-07T06:31:23.134Z,100749.19
2022-11-07T06:33:54.476Z,100754.44
2022-11-07T06:36:21.032Z,100755.31
2022-11-07T06:38:53.119Z,100752.59
2022-11-07T06:41:19.628Z,100762.41
2022-11-07T06:43:46.215Z,100760.56
2022-11-07T06:46:14.300Z,100762.13
2022-11-07T06:48:43.556Z,100768.41
2022-11-07T06:51:11.050Z,100764.69
2022-11-07T06:53:38.592Z,100769.84
2022-11-07T06:56:07.696Z,100772.41
2022-11-07T06:58:34.729Z,100766.13
2022-11-07T07:01:03.132Z,100774.09
2022-11-07T07:03:30.413Z,100774.81
2022-11-07T07:06:04.413Z,100775.53
2022-11-07T07:08:32.024Z,100771.56
2022-11-07T07:11:02.814Z,100775.81
2022-11-07T07:13:29.922Z,100780.25
2022-11-07T07:15:58.202Z,100791.78
2022-11-07T07:18:25.672Z,100789.94
2022-11-07T07:21:12.459Z,100787.94
2022-11-07T07:23:39.244Z,100792.06
2022-11-07T07:26:10.034Z,100795.63
2022-11-07T07:28:37.307Z,100798.91
2022-11-07T07:31:22.349Z,100800.63
2022-11-07T07:33:49.128Z,100805.75
2022-11-07T07:36:20.805Z,100804.59
2022-11-07T07:38:48.392Z,100816.03
2022-11-07T07:41:15.030Z,100799.53
2022-11-07T07:43:41.602Z,100807.38
2022-11-07T07:46:08.616Z,100822.34
2022-11-07T07:48:35.636Z,100822.06
2022-11-07T07:51:02.364Z,100816.34
2022-11-07T07:53:28.912Z,100810.78
2022-11-07T07:55:57.813Z,100823.19
2022-11-07T07:58:25.742Z,100822.03
2022-11-07T08:00:58.685Z,100819.19
2022-11-07T08:03:29.316Z,100819.91
2022-11-07T08:06:02.281Z,100827.03
2022-11-07T08:08:31.489Z,100836.72
2022-11-07T08:11:07.870Z,100828.31
2022-11-07T08:13:34.609Z,100840.56
2022-11-07T08:16:05.118Z,100847.41
2022-11-07T08:18:31.636Z,100835.44
2022-11-07T08:20:58.297Z,100840.28
2022-11-07T08:23:25.016Z,100837.13
2022-11-07T08:26:00.208Z,100840.25
2022-11-07T08:28:29.265Z,100837.09
2022-11-07T08:31:04.493Z,100841.09
2022-11-07T08:33:31.487Z,100837.94
2022-11-07T08:36:02.581Z,100841.94
2022-11-07T08:38:30.806Z,100842.50
2022-11-07T08:40:57.877Z,100848.19
2022-11-07T08:43:24.809Z,100836.75
2022-11-07T08:45:53.294Z,100846.16
2022-11-07T08:48:19.920Z,100851.03
2022-11-07T08:50:50.936Z,100845.00
2022-11-07T08:53:17.838Z,100848.13
2022-11-07T08:55:44.484Z,100861.78
2022-11-07T08:58:11.036Z,100860.34
2022-11-07T09:00:37.632Z,100869.75
2022-11-07T09:03:38.772Z,100866.56
2022-11-07T09:05:53.114Z,100872.84
2022-11-07T09:08:19.662Z,100873.09
2022-11-07T09:10:46.229Z,100878.78
2022-11-07T09:13:15.048Z,100890.03
2022-11-07T09:15:49.520Z,100886.00
2022-11-07T09:18:17.392Z,100887.56
2022-11-07T09:20:43.847Z,100899.13
2022-11-07T09:23:10.437Z,100882.84
2022-11-07T09:25:36.944Z,100903.00
2022-11-07T09:28:04.156Z,100890.59
2022-11-07T09:30:31.049Z,100904.16
2022-11-07T09:32:57.628Z,100905.16
2022-11-07T09:35:25.763Z,100898.72
2022-11-07T09:37:52.534Z,100906.88
2022-11-07T09:40:33.057Z,100909.59
2022-11-07T09:43:28.454Z,100908.56
2022-11-07T09:46:14.978Z,100914.72
2022-11-07T09:48:46.243Z,100920.00
2022-11-07T09:51:46.950Z,100916.41
2022-11-07T09:54:24.815Z,100916.41
2022-11-07T09:56:52.341Z,100916.25
2022-11-07T09:59:32.596Z,100919.84
2022-11-07T10:01:59.151Z,100922.41
2022-11-07T10:04:27.380Z,100922.25
2022-11-07T10:07:04.204Z,100920.09
2022-11-07T10:09:46.385Z,100924.66
2022-11-07T10:12:24.397Z,100921.50
2022-11-07T10:15:18.474Z,100920.88
2022-11-07T10:18:01.377Z,100920.97
2022-11-07T10:20:49.148Z,100932.25
2022-11-07T10:23:34.479Z,100928.22
2022-11-07T10:26:09.189Z,100924.19
2022-11-07T10:28:46.725Z,100932.03
2022-11-07T10:31:14.795Z,100933.63
2022-11-07T10:33:47.255Z,100941.63
2022-11-07T10:36:28.816Z,100939.91
2022-11-07T10:38:55.500Z,100944.50
2022-11-07T10:41:27.594Z,100942.78
2022-11-07T10:44:00.861Z,100941.19
2022-11-07T10:46:33.696Z,100937.63
2022-11-07T10:49:02.721Z,100928.63
2022-11-07T10:51:40.792Z,100933.22
2022-11-07T10:54:27.367Z,100938.63
2022-11-07T10:57:07.040Z,100939.34
2022-11-07T10:59:36.969Z,100938.22
2022-11-07T11:02:19.504Z,100946.22
2022-11-07T11:05:02.554Z,100939.63
2022-11-07T11:07:40.424Z,100946.59
2022-11-07T11:10:22.920Z,100933.72
2022-11-07T11:12:49.959Z,100944.28
2022-11-07T11:15:19.778Z,100949.56
2022-11-07T11:17:47.562Z,100940.25
2022-11-07T11:20:26.242Z,100937.22
2022-11-07T11:22:53.743Z,100938.59
2022-11-07T11:25:24.925Z,100918.41
2022-11-07T11:28:03.369Z,100924.56
2022-11-07T11:30:30.819Z,100925.09
2022-11-07T11:33:03.557Z,100921.38
2022-11-07T11:35:42.003Z,100932.63
2022-11-07T11:38:17.778Z,100927.72
2022-11-07T11:40:48.213Z,100923.69
2022-11-07T11:43:23.832Z,100931.38
2022-11-07T11:46:02.909Z,100921.50
2022-11-07T11:48:45.105Z,100923.22
2022-11-07T11:51:21.027Z,100920.34
2022-11-07T11:53:47.733Z,100921.72
2022-11-07T11:56:34.404Z,100919.06
2022-11-07T11:59:23.902Z,100921.56
2022-11-07T12:02:38.382Z,100922.50
2022-11-07T12:05:47.723Z,100922.41
2022-11-07T12:08:29.436Z,100919.91
2022-11-07T12:11:34.410Z,100925.34
2022-11-07T12:14:42.092Z,100913.97
2022-11-07T12:17:24.259Z,100925.38
2022-11-07T12:20:01.059Z,100927.94
2022-11-07T12:22:39.450Z,100924.06
2022-11-07T12:25:40.535Z,100927.13
2022-11-07T12:28:12.741Z,100923.25
2022-11-07T12:30:54.840Z,100927.50
2022-11-07T12:34:00.917Z,100933.66
2022-11-07T12:36:53.683Z,100929.06
2022-11-07T12:39:30.576Z,100935.69
2022-11-07T12:41:59.993Z,100925.63
2022-11-07T12:44:41.839Z,100929.75
2022-11-07T12:47:34.681Z,100927.56
2022-11-07T12:50:38.841Z,100918.03
2022-11-07T12:53:20.781Z,100921.13
2022-11-07T12:55:56.401Z,100916.03
2022-11-07T12:58:31.124Z,100915.41
2022-11-07T13:00:58.684Z,100903.53
2022-11-07T13:03:37.244Z,100909.56
2022-11-07T13:06:06.488Z,100912.16
2022-11-07T13:08:45.100Z,100908.44
2022-11-07T13:11:25.877Z,100913.03
2022-11-07T13:14:13.148Z,100904.53
2022-11-07T13:16:50.286Z,100906.41
2022-11-07T13:19:24.415Z,100907.75
2022-11-07T13:22:02.361Z,100910.13
2022-11-07T13:24:32.870Z,100919.31
2022-11-07T13:27:00.039Z,100910.59
2022-11-07T13:29:37.999Z,100905.81
2022-11-07T13:32:09.137Z,100909.00
2022-11-07T13:34:57.752Z,100907.63
2022-11-07T13:37:30.893Z,100908.81
2022-11-07T13:40:15.960Z,100905.56
2022-11-07T13:42:44.807Z,100900.13
2022-11-07T13:45:26.600Z,100902.16
2022-11-07T13:47:57.922Z,100897.06
2022-11-07T13:50:36.911Z,100912.13
2022-11-07T13:53:12.661Z,100900.03
2022-11-07T13:55:46.759Z,100900.38
2022-11-07T13:58:16.452Z,100900.53
2022-11-07T14:00:43.144Z,100904.25
2022-11-07T14:03:42.424Z,100899.63
2022-11-07T14:06:14.196Z,100898.63
2022-11-07T14:08:44.756Z,100899.47
2022-11-07T14:11:21.175Z,100904.22
2022-11-07T14:13:51.691Z,100905.94
2022-11-07T14:16:24.708Z,100903.22
2022-11-07T14:19:07.584Z,100902.03
2022-11-07T14:21:36.631Z,100900.84
2022-11-07T14:24:04.395Z,100902.22
2022-11-07T14:26:36.898Z,100896.78
2022-11-07T14:29:05.383Z,100903.78
2022-11-07T14:31:34.989Z,100906.34
2022-11-07T14:34:24.933Z,100907.03
2022-11-07T14:36:57.445Z,100899.72
2022-11-07T14:39:26.896Z,100905.16
2022-11-07T14:41:55.790Z,100903.63
2022-11-07T14:44:54.016Z,100907.50
2022-11-07T14:47:24.156Z,100902.22
2022-11-07T14:49:52.406Z,100908.00
2022-11-07T14:52:20.825Z,100900.16
2022-11-07T14:55:08.505Z,100905.09
2022-11-07T14:57:38.090Z,100895.22
2022-11-07T15:00:14.761Z,100907.13
2022-11-07T15:02:41.918Z,100903.69
2022-11-07T15:05:25.171Z,100908.44
2022-11-07T15:07:51.850Z,100897.88
2022-11-07T15:10:26.225Z,100904.34
2022-11-07T15:12:56.292Z,100903.66
2022-11-07T15:15:28.883Z,100901.97
2022-11-07T15:17:57.673Z,100900.25
2022-11-07T15:20:35.399Z,100889.53
2022-11-07T15:23:05.073Z,100893.41
2022-11-07T15:25:40.616Z,100902.59
2022-11-07T15:28:31.131Z,100906.34
2022-11-07T15:30:59.828Z,100907.34
2022-11-07T15:33:30.625Z,100903.94
2022-11-07T15:36:01.041Z,100904.94
2022-11-07T15:38:29.349Z,100907.31
2022-11-07T15:40:56.341Z,100903.03
2022-11-07T15:43:23.262Z,100912.38
2022-11-07T15:45:53.212Z,100908.66
2022-11-07T15:48:22.793Z,100904.22
2022-11-07T15:50:49.985Z,100912.53
2022-11-07T15:53:19.112Z,100914.56
2022-11-07T15:55:46.618Z,100911.00
2022-11-07T15:58:15.430Z,100903.16
2022-11-07T16:00:42.607Z,100917.06
2022-11-07T16:03:14.708Z,100917.38
2022-11-07T16:05:42.294Z,100919.41
2022-11-07T16:08:14.640Z,100924.13
2022-11-07T16:10:47.712Z,100919.69
2022-11-07T16:13:14.554Z,100917.97
2022-11-07T16:15:45.657Z,100916.25
2022-11-07T16:18:18.010Z,100915.56
2022-11-07T16:20:45.355Z,100916.88
2022-11-07T16:23:12.406Z,100919.06
2022-11-07T16:25:42.404Z,100915.50
2022-11-07T16:28:27.316Z,100919.22
2022-11-07T16:30:55.946Z,100910.22
2022-11-07T16:33:22.870Z,100912.25
2022-11-07T16:36:00.274Z,100926.00
2022-11-07T16:38:32.587Z,100931.44
2022-11-07T16:41:01.373Z,100922.44
2022-11-07T16:43:28.330Z,100933.47
2022-11-07T16:45:59.962Z,100932.91
2022-11-07T16:48:29.480Z,100933.06
2022-11-07T16:50:56.723Z,100933.22
2022-11-07T16:53:25.082Z,100927.94
2022-11-07T16:55:55.093Z,100926.25
2022-11-07T16:58:30.458Z,100926.09
2022-11-07T17:00:59.711Z,100921.50
2022-11-07T17:03:26.950Z,100912.19
2022-11-07T17:05:55.984Z,100924.22
2022-11-07T17:08:38.928Z,100918.94
2022-11-07T17:11:06.126Z,100923.69
2022-11-07T17:13:33.077Z,100929.44
2022-11-07T17:16:01.165Z,100927.88
2022-11-07T17:18:27.916Z,100927.88
2022-11-07T17:20:55.825Z,100928.75
2022-11-07T17:23:30.045Z,100931.47
2022-11-07T17:26:02.416Z,100938.59
2022-11-07T17:28:29.095Z,100944.03
2022-11-07T17:30:55.638Z,100940.31
2022-11-07T17:33:22.767Z,100936.75
2022-11-07T17:35:55.648Z,100935.88
2022-11-07T17:38:22.151Z,100938.59
2022-11-07T17:40:48.659Z,100936.75
2022-11-07T17:43:15.140Z,100935.88
2022-11-07T17:45:45.170Z,100938.75
2022-11-07T17:48:11.631Z,100938.75
2022-11-07T17:50:38.338Z,100942.34
2022-11-07T17:53:04.832Z,100942.34
2022-11-07T17:55:31.369Z,100940.47
2022-11-07T17:57:58.229Z,100943.03
2022-11-07T18:00:27.101Z,100934.03
2022-11-07T18:02:53.721Z,100938.44
2022-11-07T18:05:22.647Z,100936.59
2022-11-07T18:07:49.380Z,100931.00
2022-11-07T18:10:16.680Z,100930.13
2022-11-07T18:12:44.178Z,100932.84
2022-11-07T18:15:15.225Z,100925.72
2022-11-07T18:17:42.027Z,100928.44
2022-11-07T18:20:09.878Z,100936.75
2022-11-07T18:22:37.451Z,100936.75
2022-11-07T18:25:08.617Z,100931.31
2022-11-07T18:27:35.353Z,100937.75
2022-11-07T18:30:02.962Z,100930.91
2022-11-07T18:32:35.462Z,100935.81
2022-11-07T18:35:04.552Z,100935.97
2022-11-07T18:37:31.028Z,100934.25
2022-11-07T18:39:57.505Z,100937.13
2022-11-07T18:42:23.959Z,100936.28
2022-11-07T18:44:52.036Z,100946.44
2022-11-07T18:47:18.736Z,100937.75
2022-11-07T18:49:45.197Z,100928.06
2022-11-07T18:52:11.779Z,100937.53
2022-11-07T18:54:42.322Z,100938.69
2022-11-07T18:57:08.785Z,100941.72
2022-11-07T18:59:35.223Z,100946.75
2022-11-07T19:02:01.784Z,100943.50
2022-11-07T19:04:33.903Z,100947.50
2022-11-07T19:07:00.432Z,100944.06
2022-11-07T19:09:32.310Z,100943.53
2022-11-07T19:12:00.423Z,100949.25
2022-11-07T19:14:29.729Z,100944.28
2022-11-07T19:16:57.218Z,100936.28
2022-11-07T19:19:23.799Z,100939.13
2022-11-07T19:21:50.306Z,100940.88
2022-11-07T19:24:18.643Z,100943.00
2022-11-07T19:26:45.213Z,100946.19
2022-11-07T19:29:11.761Z,100949.91
2022-11-07T19:31:38.477Z,100946.47
2022-11-07T19:34:05.950Z,100943.75
2022-11-07T19:36:33.312Z,100944.47
2022-11-07T19:39:00.004Z,100940.91
2022-11-07T19:41:26.600Z,100948.88
2022-11-07T19:43:53.189Z,100948.88
2022-11-07T19:46:22.816Z,100958.91
2022-11-07T19:48:50.556Z,100949.91
2022-11-07T19:51:22.243Z,100945.47
2022-11-07T19:53:57.562Z,100948.19
2022-11-07T19:56:26.517Z,100949.34
2022-11-07T19:58:54.419Z,100957.94
2022-11-07T20:01:24.497Z,100950.25
2022-11-07T20:03:52.547Z,100952.56
2022-11-07T20:06:23.347Z,100956.75
2022-11-07T20:08:50.991Z,100960.06
2022-11-07T20:11:21.448Z,100950.50
2022-11-07T20:13:48.126Z,100954.38
2022-11-07T20:16:15.161Z,100952.94
2022-11-07T20:18:41.999Z,100961.25
2022-11-07T20:21:12.835Z,100960.69
2022-11-07T20:23:40.764Z,100958.13
2022-11-07T20:26:09.902Z,100958.97
2022-11-07T20:28:36.702Z,100956.13
2022-11-07T20:31:14.186Z,100959.69
2022-11-07T20:33:40.996Z,100954.97
2022-11-07T20:36:10.733Z,100959.25
2022-11-07T20:38:37.255Z,100964.50
2022-11-07T20:41:05.349Z,100963.66
2022-11-07T20:43:33.764Z,100960.81
2022-11-07T20:46:09.264Z,100972.50
2022-11-07T20:48:36.904Z,100966.22
2022-11-07T20:51:25.729Z,100967.38
2022-11-07T20:53:53.663Z,100960.94
2022-11-07T20:56:22.893Z,100962.09
2022-11-07T20:58:50.324Z,100971.25
2022-11-07T21:01:19.941Z,100973.97
2022-11-07T21:03:47.459Z,100966.97
2022-11-07T21:06:14.118Z,100967.13
2022-11-07T21:08:42.845Z,100967.25
2022-11-07T21:11:11.214Z,100969.09
2022-11-07T21:13:38.180Z,100962.81
2022-11-07T21:16:06.517Z,100966.53
2022-11-07T21:18:33.124Z,100970.25
2022-11-07T21:21:06.549Z,100956.97
2022-11-07T21:23:33.060Z,100957.97
2022-11-07T21:25:59.578Z,100958.28
2022-11-07T21:28:26.505Z,100956.72
2022-11-07T21:31:00.796Z,100957.72
2022-11-07T21:33:27.321Z,100953.13
2022-11-07T21:35:54.678Z,100955.72
2022-11-07T21:38:23.030Z,100954.69
2022-11-07T21:40:49.834Z,100951.69
2022-11-07T21:43:16.567Z,100952.56
2022-11-07T21:45:43.581Z,100951.53
2022-11-07T21:48:10.446Z,100953.97
2022-11-07T21:50:45.281Z,100968.97
2022-11-07T21:53:12.348Z,100957.13
2022-11-07T21:55:38.918Z,100957.69
2022-11-07T21:58:05.381Z,100950.25
2022-11-07T22:00:36.324Z,100946.66
2022-11-07T22:03:04.360Z,100947.38
2022-11-07T22:05:30.973Z,100959.09
2022-11-07T22:07:58.016Z,100943.66
2022-11-07T22:10:24.776Z,100941.94
2022-11-07T22:12:52.416Z,100934.81
2022-11-07T22:15:19.656Z,100946.53
2022-11-07T22:17:46.259Z,100935.81
2022-11-07T22:20:13.043Z,100935.09
2022-11-07T22:22:39.670Z,100931.69
2022-11-07T22:25:11.558Z,100928.28
2022-11-07T22:27:38.205Z,100932.00
2022-11-07T22:30:05.493Z,100924.97
2022-11-07T22:32:32.172Z,100921.41
2022-11-07T22:34:58.761Z,100921.69
2022-11-07T22:37:25.459Z,100926.56
2022-11-07T22:39:52.029Z,100923.28
2022-11-07T22:42:23.612Z,100921.88
2022-11-07T22:44:55.120Z,100931.31
2022-11-07T22:47:21.731Z,100920.63
2022-11-07T22:49:48.388Z,100923.34
2022-11-07T22:52:15.433Z,100924.47
2022-11-07T22:54:46.454Z,100929.19
2022-11-07T22:57:17.562Z,100918.50
2022-11-07T22:59:44.472Z,100910.66
2022-11-07T23:02:11.215Z,100909.94
2022-11-07T23:04:39.718Z,100907.38
2022-11-07T23:07:06.328Z,100913.97
2022-11-07T23:09:32.937Z,100908.69
2022-11-07T23:12:00.567Z,100902.53
2022-11-07T23:14:31.252Z,100901.84
2022-11-07T23:16:57.890Z,100905.66
2022-11-07T23:19:26.261Z,100909.69
2022-11-07T23:21:54.780Z,100910.13
2022-11-07T23:24:26.997Z,100900.56
2022-11-07T23:26:53.611Z,100904.28
2022-11-07T23:29:23.173Z,100895.44
2022-11-07T23:31:51.165Z,100901.16
2022-11-07T23:34:22.954Z,100893.31
2022-11-07T23:36:50.988Z,100895.31
2022-11-07T23:39:20.299Z,100898.31
2022-11-07T23:41:47.311Z,100888.47
2022-11-07T23:44:18.189Z,100893.88
2022-11-07T23:47:04.135Z,100898.31
2022-11-07T23:49:49.665Z,100898.31
2022-11-07T23:52:17.591Z,100884.00
2022-11-07T23:55:02.750Z,100890.44
2022-11-07T23:57:29.611Z,100886.00
